sensor_id;sensor_type;location;lat;lon;timestamp;P1;durP1;ratioP1;P2;durP2;ratioP2
46216;SDS011;47258;59.424;13.482;2022-09-13T00:00:34;1.98;;;1.83;;
46216;SDS011;47258;59.424;13.482;2022-09-13T00:03:01;1.98;;;1.77;;
46216;SDS011;47258;59.424;13.482;2022-09-13T00:05:29;4.70;;;1.88;;
46216;SDS011;47258;59.424;13.482;2022-09-13T00:07:58;1.52;;;1.42;;
46216;SDS011;47258;59.424;13.482;2022-09-13T00:10:25;2.58;;;1.50;;
46216;SDS011;47258;59.424;13.482;2022-09-13T00:12:52;1.40;;;1.30;;
46216;SDS011;47258;59.424;13.482;2022-09-13T00:15:19;1.73;;;1.63;;
46216;SDS011;47258;59.424;13.482;2022-09-13T00:17:46;1.70;;;1.60;;
46216;SDS011;47258;59.424;13.482;2022-09-13T00:20:13;2.03;;;1.80;;
46216;SDS011;47258;59.424;13.482;2022-09-13T00:22:40;3.08;;;1.95;;
46216;SDS011;47258;59.424;13.482;2022-09-13T00:25:09;1.73;;;1.40;;
46216;SDS011;47258;59.424;13.482;2022-09-13T00:27:36;1.40;;;1.30;;
46216;SDS011;47258;59.424;13.482;2022-09-13T00:30:03;2.05;;;1.50;;
46216;SDS011;47258;59.424;13.482;2022-09-13T00:32:32;2.15;;;1.65;;
46216;SDS011;47258;59.424;13.482;2022-09-13T00:34:59;1.52;;;1.42;;
46216;SDS011;47258;59.424;13.482;2022-09-13T00:37:27;1.98;;;1.67;;
46216;SDS011;47258;59.424;13.482;2022-09-13T00:39:54;4.85;;;2.13;;
46216;SDS011;47258;59.424;13.482;2022-09-13T00:42:25;2.40;;;1.80;;
46216;SDS011;47258;59.424;13.482;2022-09-13T00:44:53;4.63;;;1.77;;
46216;SDS011;47258;59.424;13.482;2022-09-13T00:47:23;3.03;;;2.22;;
46216;SDS011;47258;59.424;13.482;2022-09-13T00:49:57;3.35;;;1.80;;
46216;SDS011;47258;59.424;13.482;2022-09-13T00:52:28;1.95;;;1.65;;
46216;SDS011;47258;59.424;13.482;2022-09-13T00:57:27;3.13;;;2.38;;
46216;SDS011;47258;59.424;13.482;2022-09-13T00:59:57;2.22;;;1.67;;
46216;SDS011;47258;59.424;13.482;2022-09-13T01:02:31;5.85;;;2.38;;
46216;SDS011;47258;59.424;13.482;2022-09-13T01:07:28;2.38;;;1.65;;
46216;SDS011;47258;59.424;13.482;2022-09-13T01:09:55;2.22;;;1.50;;
46216;SDS011;47258;59.424;13.482;2022-09-13T01:12:25;1.08;;;1.08;;
46216;SDS011;47258;59.424;13.482;2022-09-13T01:15:00;2.35;;;1.60;;
46216;SDS011;47258;59.424;13.482;2022-09-13T01:19:58;2.00;;;1.90;;
46216;SDS011;47258;59.424;13.482;2022-09-13T01:25:49;2.00;;;1.90;;
46216;SDS011;47258;59.424;13.482;2022-09-13T01:29:15;2.50;;;2.30;;
46216;SDS011;47258;59.424;13.482;2022-09-13T01:32:08;2.45;;;2.25;;
46216;SDS011;47258;59.424;13.482;2022-09-13T01:34:44;3.15;;;2.63;;
46216;SDS011;47258;59.424;13.482;2022-09-13T01:37:24;4.00;;;2.28;;
46216;SDS011;47258;59.424;13.482;2022-09-13T01:40:04;2.15;;;2.05;;
46216;SDS011;47258;59.424;13.482;2022-09-13T01:42:45;4.10;;;2.58;;
46216;SDS011;47258;59.424;13.482;2022-09-13T01:45:27;7.90;;;3.45;;
46216;SDS011;47258;59.424;13.482;2022-09-13T01:48:07;2.30;;;2.10;;
46216;SDS011;47258;59.424;13.482;2022-09-13T01:50:41;2.60;;;2.40;;
46216;SDS011;47258;59.424;13.482;2022-09-13T01:53:16;2.50;;;2.30;;
46216;SDS011;47258;59.424;13.482;2022-09-13T01:55:49;2.60;;;2.28;;
46216;SDS011;47258;59.424;13.482;2022-09-13T01:58:21;6.15;;;2.50;;
46216;SDS011;47258;59.424;13.482;2022-09-13T02:00:53;3.42;;;2.70;;
46216;SDS011;47258;59.424;13.482;2022-09-13T02:03:32;10.43;;;3.30;;
46216;SDS011;47258;59.424;13.482;2022-09-13T02:06:04;7.18;;;3.55;;
46216;SDS011;47258;59.424;13.482;2022-09-13T02:08:34;4.32;;;3.63;;
46216;SDS011;47258;59.424;13.482;2022-09-13T02:11:07;3.53;;;3.22;;
46216;SDS011;47258;59.424;13.482;2022-09-13T02:13:37;6.28;;;3.60;;
46216;SDS011;47258;59.424;13.482;2022-09-13T02:16:10;7.97;;;3.42;;
46216;SDS011;47258;59.424;13.482;2022-09-13T02:18:44;5.63;;;3.33;;
46216;SDS011;47258;59.424;13.482;2022-09-13T02:21:15;5.78;;;3.17;;
46216;SDS011;47258;59.424;13.482;2022-09-13T02:23:46;5.75;;;3.58;;
46216;SDS011;47258;59.424;13.482;2022-09-13T02:26:17;4.07;;;3.65;;
46216;SDS011;47258;59.424;13.482;2022-09-13T02:28:50;7.80;;;3.55;;
46216;SDS011;47258;59.424;13.482;2022-09-13T02:31:19;7.50;;;3.42;;
46216;SDS011;47258;59.424;13.482;2022-09-13T02:33:54;7.57;;;3.78;;
46216;SDS011;47258;59.424;13.482;2022-09-13T02:36:24;5.07;;;3.80;;
46216;SDS011;47258;59.424;13.482;2022-09-13T02:38:55;4.10;;;3.58;;
46216;SDS011;47258;59.424;13.482;2022-09-13T02:41:27;6.88;;;4.15;;
46216;SDS011;47258;59.424;13.482;2022-09-13T02:44:00;10.10;;;4.97;;
46216;SDS011;47258;59.424;13.482;2022-09-13T02:46:35;4.95;;;4.30;;
46216;SDS011;47258;59.424;13.482;2022-09-13T02:49:19;4.55;;;4.15;;
46216;SDS011;47258;59.424;13.482;2022-09-13T02:51:53;7.13;;;4.82;;
46216;SDS011;47258;59.424;13.482;2022-09-13T02:54:27;7.28;;;4.63;;
46216;SDS011;47258;59.424;13.482;2022-09-13T02:57:01;5.63;;;4.45;;
46216;SDS011;47258;59.424;13.482;2022-09-13T02:59:32;5.85;;;5.20;;
46216;SDS011;47258;59.424;13.482;2022-09-13T03:02:01;6.88;;;4.82;;
46216;SDS011;47258;59.424;13.482;2022-09-13T03:04:33;11.38;;;5.70;;
46216;SDS011;47258;59.424;13.482;2022-09-13T03:07:00;8.60;;;4.83;;
46216;SDS011;47258;59.424;13.482;2022-09-13T03:09:28;5.88;;;4.72;;
46216;SDS011;47258;59.424;13.482;2022-09-13T03:12:07;9.48;;;5.20;;
46216;SDS011;47258;59.424;13.482;2022-09-13T03:14:48;5.60;;;5.10;;
46216;SDS011;47258;59.424;13.482;2022-09-13T03:17:28;6.55;;;5.10;;
46216;SDS011;47258;59.424;13.482;2022-09-13T03:20:09;9.35;;;5.80;;
46216;SDS011;47258;59.424;13.482;2022-09-13T03:22:49;10.48;;;5.90;;
46216;SDS011;47258;59.424;13.482;2022-09-13T03:25:48;12.10;;;6.00;;
46216;SDS011;47258;59.424;13.482;2022-09-13T03:28:19;7.53;;;6.10;;
46216;SDS011;47258;59.424;13.482;2022-09-13T03:30:52;13.57;;;6.15;;
46216;SDS011;47258;59.424;13.482;2022-09-13T03:33:23;7.95;;;6.18;;
46216;SDS011;47258;59.424;13.482;2022-09-13T03:35:56;10.68;;;5.90;;
46216;SDS011;47258;59.424;13.482;2022-09-13T03:38:30;9.20;;;6.25;;
46216;SDS011;47258;59.424;13.482;2022-09-13T03:40:59;9.82;;;6.95;;
46216;SDS011;47258;59.424;13.482;2022-09-13T03:43:29;9.43;;;5.57;;
46216;SDS011;47258;59.424;13.482;2022-09-13T03:46:01;5.82;;;4.82;;
46216;SDS011;47258;59.424;13.482;2022-09-13T03:48:30;9.70;;;5.15;;
46216;SDS011;47258;59.424;13.482;2022-09-13T03:50:59;6.85;;;5.03;;
46216;SDS011;47258;59.424;13.482;2022-09-13T03:53:26;5.68;;;4.93;;
46216;SDS011;47258;59.424;13.482;2022-09-13T03:55:56;6.88;;;4.05;;
46216;SDS011;47258;59.424;13.482;2022-09-13T03:58:24;7.68;;;4.90;;
46216;SDS011;47258;59.424;13.482;2022-09-13T04:00:51;8.68;;;4.75;;
46216;SDS011;47258;59.424;13.482;2022-09-13T04:03:18;4.45;;;3.95;;
46216;SDS011;47258;59.424;13.482;2022-09-13T04:05:46;6.00;;;4.70;;
46216;SDS011;47258;59.424;13.482;2022-09-13T04:08:15;5.40;;;4.95;;
46216;SDS011;47258;59.424;13.482;2022-09-13T04:10:42;11.05;;;4.97;;
46216;SDS011;47258;59.424;13.482;2022-09-13T04:13:10;4.63;;;3.63;;
46216;SDS011;47258;59.424;13.482;2022-09-13T04:15:37;6.93;;;4.50;;
46216;SDS011;47258;59.424;13.482;2022-09-13T04:18:04;4.47;;;4.07;;
46216;SDS011;47258;59.424;13.482;2022-09-13T04:20:33;4.43;;;3.97;;
46216;SDS011;47258;59.424;13.482;2022-09-13T04:23:01;4.57;;;3.83;;
46216;SDS011;47258;59.424;13.482;2022-09-13T04:25:29;5.20;;;3.60;;
46216;SDS011;47258;59.424;13.482;2022-09-13T04:27:56;6.55;;;4.00;;
46216;SDS011;47258;59.424;13.482;2022-09-13T04:30:24;4.15;;;3.75;;
46216;SDS011;47258;59.424;13.482;2022-09-13T04:32:51;4.13;;;3.67;;
46216;SDS011;47258;59.424;13.482;2022-09-13T04:35:20;5.53;;;3.88;;
46216;SDS011;47258;59.424;13.482;2022-09-13T04:37:47;4.85;;;3.20;;
46216;SDS011;47258;59.424;13.482;2022-09-13T04:40:14;5.28;;;3.60;;
46216;SDS011;47258;59.424;13.482;2022-09-13T04:42:44;4.07;;;3.67;;
46216;SDS011;47258;59.424;13.482;2022-09-13T04:45:11;3.05;;;2.80;;
46216;SDS011;47258;59.424;13.482;2022-09-13T04:47:38;3.17;;;2.88;;
46216;SDS011;47258;59.424;13.482;2022-09-13T04:50:05;2.92;;;2.55;;
46216;SDS011;47258;59.424;13.482;2022-09-13T04:52:34;4.90;;;3.05;;
46216;SDS011;47258;59.424;13.482;2022-09-13T04:55:01;3.58;;;3.08;;
46216;SDS011;47258;59.424;13.482;2022-09-13T04:57:28;3.13;;;2.80;;
46216;SDS011;47258;59.424;13.482;2022-09-13T04:59:57;2.75;;;2.55;;
46216;SDS011;47258;59.424;13.482;2022-09-13T05:02:24;2.45;;;2.28;;
46216;SDS011;47258;59.424;13.482;2022-09-13T05:04:51;2.78;;;2.58;;
46216;SDS011;47258;59.424;13.482;2022-09-13T05:07:18;7.10;;;2.50;;
46216;SDS011;47258;59.424;13.482;2022-09-13T05:09:46;2.28;;;2.00;;
46216;SDS011;47258;59.424;13.482;2022-09-13T05:12:13;2.58;;;2.38;;
46216;SDS011;47258;59.424;13.482;2022-09-13T05:14:40;2.20;;;2.00;;
46216;SDS011;47258;59.424;13.482;2022-09-13T05:17:08;2.00;;;1.90;;
46216;SDS011;47258;59.424;13.482;2022-09-13T05:19:36;3.72;;;2.25;;
46216;SDS011;47258;59.424;13.482;2022-09-13T05:22:03;2.15;;;2.05;;
46216;SDS011;47258;59.424;13.482;2022-09-13T05:24:30;2.42;;;2.22;;
46216;SDS011;47258;59.424;13.482;2022-09-13T05:26:58;2.33;;;2.17;;
46216;SDS011;47258;59.424;13.482;2022-09-13T05:29:25;3.10;;;2.00;;
46216;SDS011;47258;59.424;13.482;2022-09-13T05:31:52;2.03;;;1.92;;
46216;SDS011;47258;59.424;13.482;2022-09-13T05:34:21;2.38;;;2.00;;
46216;SDS011;47258;59.424;13.482;2022-09-13T05:36:48;3.88;;;1.75;;
46216;SDS011;47258;59.424;13.482;2022-09-13T05:39:16;1.98;;;1.88;;
46216;SDS011;47258;59.424;13.482;2022-09-13T05:41:44;2.97;;;1.70;;
46216;SDS011;47258;59.424;13.482;2022-09-13T05:44:11;2.13;;;1.65;;
46216;SDS011;47258;59.424;13.482;2022-09-13T05:46:38;2.63;;;2.42;;
46216;SDS011;47258;59.424;13.482;2022-09-13T05:49:06;1.85;;;1.75;;
46216;SDS011;47258;59.424;13.482;2022-09-13T05:51:34;2.10;;;2.00;;
46216;SDS011;47258;59.424;13.482;2022-09-13T05:54:02;1.70;;;1.60;;
46216;SDS011;47258;59.424;13.482;2022-09-13T05:56:29;1.95;;;1.85;;
46216;SDS011;47258;59.424;13.482;2022-09-13T05:58:56;1.92;;;1.83;;
46216;SDS011;47258;59.424;13.482;2022-09-13T06:01:25;2.20;;;2.10;;
46216;SDS011;47258;59.424;13.482;2022-09-13T06:03:53;2.10;;;1.85;;
46216;SDS011;47258;59.424;13.482;2022-09-13T06:06:20;2.00;;;1.75;;
46216;SDS011;47258;59.424;13.482;2022-09-13T06:08:52;4.72;;;1.90;;
46216;SDS011;47258;59.424;13.482;2022-09-13T06:11:19;3.42;;;1.85;;
46216;SDS011;47258;59.424;13.482;2022-09-13T06:13:46;2.35;;;2.15;;
46216;SDS011;47258;59.424;13.482;2022-09-13T06:16:13;2.65;;;2.45;;
46216;SDS011;47258;59.424;13.482;2022-09-13T06:18:41;5.45;;;2.38;;
46216;SDS011;47258;59.424;13.482;2022-09-13T06:21:09;1.85;;;1.30;;
46216;SDS011;47258;59.424;13.482;2022-09-13T06:23:41;1.83;;;1.27;;
46216;SDS011;47258;59.424;13.482;2022-09-13T06:26:11;2.63;;;1.13;;
46216;SDS011;47258;59.424;13.482;2022-09-13T06:28:39;2.83;;;1.27;;
46216;SDS011;47258;59.424;13.482;2022-09-13T06:31:07;4.90;;;1.00;;
46216;SDS011;47258;59.424;13.482;2022-09-13T06:33:35;8.03;;;1.13;;
46216;SDS011;47258;59.424;13.482;2022-09-13T06:36:05;5.97;;;0.70;;
46216;SDS011;47258;59.424;13.482;2022-09-13T06:38:33;3.85;;;0.55;;
46216;SDS011;47258;59.424;13.482;2022-09-13T06:41:01;0.32;;;0.32;;
46216;SDS011;47258;59.424;13.482;2022-09-13T06:43:30;0.80;;;0.50;;
46216;SDS011;47258;59.424;13.482;2022-09-13T06:45:58;8.57;;;0.65;;
46216;SDS011;47258;59.424;13.482;2022-09-13T06:48:29;0.93;;;0.50;;
46216;SDS011;47258;59.424;13.482;2022-09-13T06:50:57;0.73;;;0.50;;
46216;SDS011;47258;59.424;13.482;2022-09-13T06:53:25;3.20;;;0.73;;
46216;SDS011;47258;59.424;13.482;2022-09-13T06:55:59;1.27;;;0.60;;
46216;SDS011;47258;59.424;13.482;2022-09-13T06:58:28;1.75;;;0.77;;
46216;SDS011;47258;59.424;13.482;2022-09-13T07:01:06;0.85;;;0.73;;
46216;SDS011;47258;59.424;13.482;2022-09-13T07:03:36;0.93;;;0.90;;
46216;SDS011;47258;59.424;13.482;2022-09-13T07:06:11;2.80;;;0.60;;
46216;SDS011;47258;59.424;13.482;2022-09-13T07:08:39;5.28;;;0.70;;
46216;SDS011;47258;59.424;13.482;2022-09-13T07:11:07;3.60;;;0.70;;
46216;SDS011;47258;59.424;13.482;2022-09-13T07:13:36;4.05;;;0.90;;
46216;SDS011;47258;59.424;13.482;2022-09-13T07:16:04;2.70;;;1.15;;
46216;SDS011;47258;59.424;13.482;2022-09-13T07:18:32;0.80;;;0.80;;
46216;SDS011;47258;59.424;13.482;2022-09-13T07:21:00;2.80;;;1.08;;
46216;SDS011;47258;59.424;13.482;2022-09-13T07:23:29;0.82;;;0.70;;
46216;SDS011;47258;59.424;13.482;2022-09-13T07:25:57;3.53;;;0.98;;
46216;SDS011;47258;59.424;13.482;2022-09-13T07:28:29;1.02;;;0.60;;
46216;SDS011;47258;59.424;13.482;2022-09-13T07:31:04;2.03;;;0.75;;
46216;SDS011;47258;59.424;13.482;2022-09-13T07:33:32;2.47;;;0.85;;
46216;SDS011;47258;59.424;13.482;2022-09-13T07:36:00;3.10;;;0.77;;
46216;SDS011;47258;59.424;13.482;2022-09-13T07:38:30;3.58;;;1.15;;
46216;SDS011;47258;59.424;13.482;2022-09-13T07:40:58;6.18;;;0.90;;
46216;SDS011;47258;59.424;13.482;2022-09-13T07:43:25;1.75;;;1.13;;
46216;SDS011;47258;59.424;13.482;2022-09-13T07:45:56;4.25;;;1.00;;
46216;SDS011;47258;59.424;13.482;2022-09-13T07:48:26;3.38;;;1.02;;
46216;SDS011;47258;59.424;13.482;2022-09-13T07:50:57;1.67;;;0.82;;
46216;SDS011;47258;59.424;13.482;2022-09-13T07:53:25;3.67;;;1.02;;
46216;SDS011;47258;59.424;13.482;2022-09-13T07:55:52;2.88;;;0.88;;
46216;SDS011;47258;59.424;13.482;2022-09-13T07:58:19;4.43;;;0.65;;
46216;SDS011;47258;59.424;13.482;2022-09-13T08:00:46;5.50;;;1.60;;
46216;SDS011;47258;59.424;13.482;2022-09-13T08:03:13;3.72;;;1.02;;
46216;SDS011;47258;59.424;13.482;2022-09-13T08:05:41;7.97;;;1.08;;
46216;SDS011;47258;59.424;13.482;2022-09-13T08:08:08;7.70;;;1.00;;
46216;SDS011;47258;59.424;13.482;2022-09-13T08:10:35;3.28;;;0.70;;
46216;SDS011;47258;59.424;13.482;2022-09-13T08:13:02;7.85;;;1.10;;
46216;SDS011;47258;59.424;13.482;2022-09-13T08:15:29;2.92;;;0.65;;
46216;SDS011;47258;59.424;13.482;2022-09-13T08:17:55;5.47;;;0.70;;
46216;SDS011;47258;59.424;13.482;2022-09-13T08:20:22;3.20;;;1.25;;
46216;SDS011;47258;59.424;13.482;2022-09-13T08:22:51;4.93;;;0.93;;
46216;SDS011;47258;59.424;13.482;2022-09-13T08:25:18;10.20;;;1.33;;
46216;SDS011;47258;59.424;13.482;2022-09-13T08:27:44;5.95;;;1.98;;
46216;SDS011;47258;59.424;13.482;2022-09-13T08:30:11;9.52;;;2.08;;
46216;SDS011;47258;59.424;13.482;2022-09-13T08:32:39;5.47;;;2.15;;
46216;SDS011;47258;59.424;13.482;2022-09-13T08:35:06;3.40;;;1.92;;
46216;SDS011;47258;59.424;13.482;2022-09-13T08:37:33;5.38;;;0.80;;
46216;SDS011;47258;59.424;13.482;2022-09-13T08:40:02;3.88;;;0.90;;
46216;SDS011;47258;59.424;13.482;2022-09-13T08:42:32;3.70;;;0.95;;
46216;SDS011;47258;59.424;13.482;2022-09-13T08:45:12;4.75;;;1.15;;
46216;SDS011;47258;59.424;13.482;2022-09-13T08:47:40;6.22;;;1.30;;
46216;SDS011;47258;59.424;13.482;2022-09-13T08:50:13;4.30;;;0.82;;
46216;SDS011;47258;59.424;13.482;2022-09-13T08:52:45;4.88;;;1.02;;
46216;SDS011;47258;59.424;13.482;2022-09-13T08:55:24;2.75;;;1.13;;
46216;SDS011;47258;59.424;13.482;2022-09-13T08:58:02;4.43;;;0.90;;
46216;SDS011;47258;59.424;13.482;2022-09-13T09:00:37;4.63;;;1.02;;
46216;SDS011;47258;59.424;13.482;2022-09-13T09:03:13;3.83;;;0.70;;
46216;SDS011;47258;59.424;13.482;2022-09-13T09:05:46;3.88;;;0.80;;
46216;SDS011;47258;59.424;13.482;2022-09-13T09:08:16;4.80;;;0.73;;
46216;SDS011;47258;59.424;13.482;2022-09-13T09:10:52;5.70;;;0.98;;
46216;SDS011;47258;59.424;13.482;2022-09-13T09:13:24;3.63;;;0.98;;
46216;SDS011;47258;59.424;13.482;2022-09-13T09:15:55;4.03;;;0.60;;
46216;SDS011;47258;59.424;13.482;2022-09-13T09:18:27;7.88;;;1.20;;
46216;SDS011;47258;59.424;13.482;2022-09-13T09:20:58;4.95;;;1.17;;
46216;SDS011;47258;59.424;13.482;2022-09-13T09:23:28;2.75;;;1.15;;
46216;SDS011;47258;59.424;13.482;2022-09-13T09:26:10;6.47;;;1.20;;
46216;SDS011;47258;59.424;13.482;2022-09-13T09:28:41;7.07;;;1.05;;
46216;SDS011;47258;59.424;13.482;2022-09-13T09:31:09;3.35;;;0.77;;
46216;SDS011;47258;59.424;13.482;2022-09-13T09:33:45;8.18;;;1.08;;
46216;SDS011;47258;59.424;13.482;2022-09-13T09:36:22;6.70;;;1.23;;
46216;SDS011;47258;59.424;13.482;2022-09-13T09:38:56;3.50;;;1.02;;
46216;SDS011;47258;59.424;13.482;2022-09-13T09:41:26;7.82;;;1.20;;
46216;SDS011;47258;59.424;13.482;2022-09-13T09:43:58;6.55;;;1.10;;
46216;SDS011;47258;59.424;13.482;2022-09-13T09:46:32;5.10;;;1.23;;
46216;SDS011;47258;59.424;13.482;2022-09-13T09:49:04;2.78;;;0.63;;
46216;SDS011;47258;59.424;13.482;2022-09-13T09:51:58;8.88;;;1.35;;
46216;SDS011;47258;59.424;13.482;2022-09-13T09:54:27;3.80;;;0.57;;
46216;SDS011;47258;59.424;13.482;2022-09-13T09:56:57;5.45;;;1.10;;
46216;SDS011;47258;59.424;13.482;2022-09-13T09:59:24;1.77;;;1.00;;
46216;SDS011;47258;59.424;13.482;2022-09-13T10:01:53;3.05;;;0.90;;
46216;SDS011;47258;59.424;13.482;2022-09-13T10:04:22;3.15;;;0.63;;
46216;SDS011;47258;59.424;13.482;2022-09-13T10:06:50;5.40;;;0.90;;
46216;SDS011;47258;59.424;13.482;2022-09-13T10:09:35;1.63;;;0.43;;
46216;SDS011;47258;59.424;13.482;2022-09-13T10:12:04;5.57;;;1.13;;
46216;SDS011;47258;59.424;13.482;2022-09-13T10:14:36;3.78;;;0.75;;
46216;SDS011;47258;59.424;13.482;2022-09-13T10:17:15;6.38;;;1.58;;
46216;SDS011;47258;59.424;13.482;2022-09-13T10:19:50;4.15;;;0.50;;
46216;SDS011;47258;59.424;13.482;2022-09-13T10:22:19;1.88;;;0.57;;
46216;SDS011;47258;59.424;13.482;2022-09-13T10:24:47;5.22;;;0.70;;
46216;SDS011;47258;59.424;13.482;2022-09-13T10:27:19;3.70;;;0.88;;
46216;SDS011;47258;59.424;13.482;2022-09-13T10:29:50;1.05;;;0.45;;
46216;SDS011;47258;59.424;13.482;2022-09-13T10:32:23;3.97;;;1.42;;
46216;SDS011;47258;59.424;13.482;2022-09-13T10:34:51;2.60;;;0.50;;
46216;SDS011;47258;59.424;13.482;2022-09-13T10:37:20;2.60;;;0.80;;
46216;SDS011;47258;59.424;13.482;2022-09-13T10:39:56;6.20;;;1.35;;
46216;SDS011;47258;59.424;13.482;2022-09-13T10:42:29;6.50;;;1.30;;
46216;SDS011;47258;59.424;13.482;2022-09-13T10:44:57;8.35;;;0.90;;
46216;SDS011;47258;59.424;13.482;2022-09-13T10:47:26;0.88;;;0.40;;
46216;SDS011;47258;59.424;13.482;2022-09-13T10:50:09;4.90;;;0.77;;
46216;SDS011;47258;59.424;13.482;2022-09-13T10:55:22;5.90;;;1.75;;
46216;SDS011;47258;59.424;13.482;2022-09-13T11:04:20;6.57;;;0.98;;
46216;SDS011;47258;59.424;13.482;2022-09-13T11:07:15;3.10;;;0.50;;
46216;SDS011;47258;59.424;13.482;2022-09-13T11:09:53;6.80;;;0.95;;
46216;SDS011;47258;59.424;13.482;2022-09-13T11:12:27;2.85;;;0.60;;
46216;SDS011;47258;59.424;13.482;2022-09-13T11:15:05;3.97;;;0.70;;
46216;SDS011;47258;59.424;13.482;2022-09-13T11:17:56;9.02;;;1.02;;
46216;SDS011;47258;59.424;13.482;2022-09-13T11:20:36;2.50;;;0.68;;
46216;SDS011;47258;59.424;13.482;2022-09-13T11:23:20;5.28;;;1.38;;
46216;SDS011;47258;59.424;13.482;2022-09-13T11:26:08;4.75;;;0.98;;
46216;SDS011;47258;59.424;13.482;2022-09-13T11:28:49;4.90;;;1.05;;
46216;SDS011;47258;59.424;13.482;2022-09-13T11:31:29;1.38;;;0.57;;
46216;SDS011;47258;59.424;13.482;2022-09-13T11:34:10;4.88;;;0.93;;
46216;SDS011;47258;59.424;13.482;2022-09-13T11:36:49;4.05;;;1.42;;
46216;SDS011;47258;59.424;13.482;2022-09-13T11:39:37;2.33;;;0.60;;
46216;SDS011;47258;59.424;13.482;2022-09-13T11:42:11;4.22;;;0.70;;
46216;SDS011;47258;59.424;13.482;2022-09-13T11:47:43;2.15;;;0.75;;
46216;SDS011;47258;59.424;13.482;2022-09-13T11:50:24;2.35;;;0.80;;
46216;SDS011;47258;59.424;13.482;2022-09-13T11:53:01;6.20;;;0.90;;
46216;SDS011;47258;59.424;13.482;2022-09-13T11:55:41;4.30;;;0.60;;
46216;SDS011;47258;59.424;13.482;2022-09-13T11:58:14;6.28;;;1.63;;
46216;SDS011;47258;59.424;13.482;2022-09-13T12:00:46;7.05;;;1.00;;
46216;SDS011;47258;59.424;13.482;2022-09-13T12:03:20;2.83;;;0.93;;
46216;SDS011;47258;59.424;13.482;2022-09-13T12:05:51;4.57;;;1.15;;
46216;SDS011;47258;59.424;13.482;2022-09-13T12:08:23;3.42;;;0.63;;
46216;SDS011;47258;59.424;13.482;2022-09-13T12:10:54;3.42;;;0.65;;
46216;SDS011;47258;59.424;13.482;2022-09-13T12:13:23;2.60;;;0.43;;
46216;SDS011;47258;59.424;13.482;2022-09-13T12:15:52;5.57;;;1.23;;
46216;SDS011;47258;59.424;13.482;2022-09-13T12:18:24;1.75;;;0.70;;
46216;SDS011;47258;59.424;13.482;2022-09-13T12:20:56;2.33;;;0.55;;
46216;SDS011;47258;59.424;13.482;2022-09-13T12:23:30;2.08;;;0.45;;
46216;SDS011;47258;59.424;13.482;2022-09-13T12:26:01;2.83;;;0.55;;
46216;SDS011;47258;59.424;13.482;2022-09-13T12:28:33;0.95;;;0.47;;
46216;SDS011;47258;59.424;13.482;2022-09-13T12:31:06;3.00;;;0.35;;
46216;SDS011;47258;59.424;13.482;2022-09-13T12:33:39;2.22;;;0.40;;
46216;SDS011;47258;59.424;13.482;2022-09-13T12:39:11;4.38;;;0.63;;
46216;SDS011;47258;59.424;13.482;2022-09-13T12:42:00;4.50;;;0.55;;
46216;SDS011;47258;59.424;13.482;2022-09-13T12:44:48;2.65;;;0.40;;
46216;SDS011;47258;59.424;13.482;2022-09-13T12:50:36;1.30;;;0.50;;
46216;SDS011;47258;59.424;13.482;2022-09-13T12:53:27;0.25;;;0.25;;
46216;SDS011;47258;59.424;13.482;2022-09-13T12:56:19;3.60;;;0.60;;
46216;SDS011;47258;59.424;13.482;2022-09-13T13:02:18;0.85;;;0.40;;
46216;SDS011;47258;59.424;13.482;2022-09-13T13:05:04;3.10;;;1.05;;
46216;SDS011;47258;59.424;13.482;2022-09-13T13:07:48;3.83;;;0.40;;
46216;SDS011;47258;59.424;13.482;2022-09-13T13:10:22;15.93;;;2.53;;
46216;SDS011;47258;59.424;13.482;2022-09-13T13:12:52;1.85;;;0.70;;
46216;SDS011;47258;59.424;13.482;2022-09-13T13:18:22;1.15;;;0.60;;
46216;SDS011;47258;59.424;13.482;2022-09-13T13:21:06;6.38;;;1.27;;
46216;SDS011;47258;59.424;13.482;2022-09-13T13:30:05;3.25;;;0.85;;
46216;SDS011;47258;59.424;13.482;2022-09-13T13:33:04;1.60;;;0.38;;
46216;SDS011;47258;59.424;13.482;2022-09-13T13:38:12;8.57;;;1.50;;
46216;SDS011;47258;59.424;13.482;2022-09-13T13:40:40;3.47;;;1.40;;
46216;SDS011;47258;59.424;13.482;2022-09-13T13:43:13;2.85;;;1.17;;
46216;SDS011;47258;59.424;13.482;2022-09-13T13:45:49;2.40;;;0.30;;
46216;SDS011;47258;59.424;13.482;2022-09-13T13:48:33;3.05;;;0.77;;
46216;SDS011;47258;59.424;13.482;2022-09-13T13:51:14;2.10;;;0.47;;
46216;SDS011;47258;59.424;13.482;2022-09-13T13:53:43;0.30;;;0.30;;
46216;SDS011;47258;59.424;13.482;2022-09-13T13:56:21;2.28;;;0.60;;
46216;SDS011;47258;59.424;13.482;2022-09-13T13:58:51;1.08;;;0.85;;
46216;SDS011;47258;59.424;13.482;2022-09-13T14:01:23;3.20;;;0.65;;
46216;SDS011;47258;59.424;13.482;2022-09-13T14:06:43;0.40;;;0.32;;
46216;SDS011;47258;59.424;13.482;2022-09-13T14:09:16;0.25;;;0.25;;
46216;SDS011;47258;59.424;13.482;2022-09-13T14:11:53;1.70;;;0.30;;
46216;SDS011;47258;59.424;13.482;2022-09-13T14:14:30;1.02;;;0.70;;
46216;SDS011;47258;59.424;13.482;2022-09-13T14:17:23;0.40;;;0.40;;
46216;SDS011;47258;59.424;13.482;2022-09-13T14:22:15;1.60;;;0.82;;
46216;SDS011;47258;59.424;13.482;2022-09-13T14:24:45;2.03;;;0.85;;
46216;SDS011;47258;59.424;13.482;2022-09-13T14:27:14;1.58;;;0.75;;
46216;SDS011;47258;59.424;13.482;2022-09-13T14:29:46;1.77;;;0.60;;
46216;SDS011;47258;59.424;13.482;2022-09-13T14:32:17;1.45;;;0.73;;
46216;SDS011;47258;59.424;13.482;2022-09-13T14:34:52;1.63;;;0.98;;
46216;SDS011;47258;59.424;13.482;2022-09-13T14:37:22;0.30;;;0.30;;
46216;SDS011;47258;59.424;13.482;2022-09-13T14:39:55;0.65;;;0.40;;
46216;SDS011;47258;59.424;13.482;2022-09-13T14:42:22;5.78;;;1.88;;
46216;SDS011;47258;59.424;13.482;2022-09-13T14:44:49;0.20;;;0.17;;
46216;SDS011;47258;59.424;13.482;2022-09-13T14:47:20;0.95;;;0.30;;
46216;SDS011;47258;59.424;13.482;2022-09-13T14:49:51;0.20;;;0.20;;
46216;SDS011;47258;59.424;13.482;2022-09-13T14:52:20;0.03;;;0.03;;
46216;SDS011;47258;59.424;13.482;2022-09-13T14:54:50;0.38;;;0.20;;
46216;SDS011;47258;59.424;13.482;2022-09-13T14:57:20;0.47;;;0.30;;
46216;SDS011;47258;59.424;13.482;2022-09-13T14:59:49;2.05;;;0.85;;
46216;SDS011;47258;59.424;13.482;2022-09-13T15:02:20;1.13;;;0.20;;
46216;SDS011;47258;59.424;13.482;2022-09-13T15:04:49;0.20;;;0.20;;
46216;SDS011;47258;59.424;13.482;2022-09-13T15:07:19;0.47;;;0.20;;
46216;SDS011;47258;59.424;13.482;2022-09-13T15:09:46;1.13;;;0.32;;
46216;SDS011;47258;59.424;13.482;2022-09-13T15:12:20;0.50;;;0.20;;
46216;SDS011;47258;59.424;13.482;2022-09-13T15:14:49;2.55;;;0.47;;
46216;SDS011;47258;59.424;13.482;2022-09-13T15:17:50;1.40;;;0.40;;
46216;SDS011;47258;59.424;13.482;2022-09-13T15:20:18;5.93;;;0.85;;
46216;SDS011;47258;59.424;13.482;2022-09-13T15:22:46;1.02;;;0.30;;
46216;SDS011;47258;59.424;13.482;2022-09-13T15:25:19;0.77;;;0.57;;
46216;SDS011;47258;59.424;13.482;2022-09-13T15:27:46;1.15;;;0.30;;
46216;SDS011;47258;59.424;13.482;2022-09-13T15:30:24;0.60;;;0.20;;
46216;SDS011;47258;59.424;13.482;2022-09-13T15:33:13;0.22;;;0.10;;
46216;SDS011;47258;59.424;13.482;2022-09-13T15:35:41;0.13;;;0.13;;
46216;SDS011;47258;59.424;13.482;2022-09-13T15:38:17;0.10;;;0.10;;
46216;SDS011;47258;59.424;13.482;2022-09-13T15:40:45;0.40;;;0.40;;
46216;SDS011;47258;59.424;13.482;2022-09-13T15:43:13;0.35;;;0.20;;
46216;SDS011;47258;59.424;13.482;2022-09-13T15:45:40;2.13;;;0.20;;
46216;SDS011;47258;59.424;13.482;2022-09-13T15:48:10;0.68;;;0.30;;
46216;SDS011;47258;59.424;13.482;2022-09-13T15:50:42;1.38;;;0.55;;